Connelly, NY (12417)

5:27 AM EDT on March 27, 2017 (GMT -0400)
Rondout Weather | | Change Station

Elev 138 ft 41.92 °N, 73.99 °W | Updated 25 seconds ago

Rain
Rain
37.0 °F
Feels Like 37 °F
N
0.0
Wind Variable Wind from North
Gusts 0.0 mph

Today
High -- | Low -- °F
--% Chance of Precip.
Yesterday
High -- | Low -- °F
Precip. -- in
Pressure 30.17 in
Visibility 4.0 miles
Clouds Overcast 700 ft
Windchill 37 °F
Dew Point 34 °F
Humidity 90%
Rainfall 0.09 in
Snow Depth Not available.
6:46 AM 7:16 PM
Waning Crescent, 1% visible
METAR KPOU 270853Z 00000KT 4SM -RA BR OVC007 01/01 A3017 RMK AO2 UPB02E17B51E53RAB17 SLP216 P0004 60004 T00110011 58030
Pressure 30.17 in
Visibility 4.0 miles
Clouds Overcast 700 ft
Windchill 37 °F
Dew Point 34 °F
Humidity 90%
Rainfall 0.09 in
Snow Depth Not available.
6:46 AM 7:16 PM
Waning Crescent, 1% visible
METAR KPOU 270853Z 00000KT 4SM -RA BR OVC007 01/01 A3017 RMK AO2 UPB02E17B51E53RAB17 SLP216 P0004 60004 T00110011 58030

Get Severe Weather Alerts

Thanks for signing up!

Be on the lookout for a verification email in your inbox.

You'll start receiving the daily forecast at 8 AM.

×

10-Day Weather Forecast

Almanac

Astronomy

Mar. 27, 2017 Rise Set
Actual Time
Civil Twilight
Nautical Twilight
Astronomical Twilight
Moon
Length of Visible Light
Length of Day
Tomorrow will be .
, % of the Moon is Illuminated

Today's Extremes

State Highs State Lows

Community

WunderPhotos

Upload Photos

1,962,540 photos uploaded!

WunderBlog® & News

Nearby

Air Quality

  Air Quality AQ Index Pollutant
Not available.

Snow Depth

Station Depth Elevation

Earthquake Activity

City Distance Mag. Time & Date
Minimum magnitude displayed is 2.5.

Earthquake Activity

City Distance Mag. Time & Date
Minimum magnitude displayed is 2.5.

Coastal Water Temperatures

Place Temperature

Stations

Nearby Weather Stations

Station Location Temp. Windchill Dew Point Humidity Wind Precip. Elev Updated Type
                   

Watches & Warnings

There are currently no watches in effect.